Time;durP1;ratioP1;P1;durP2;ratioP2;P2;SDS_P1;SDS_P2;PMS_P1;PMS_P2;Temp;Humidity;BMP_temperature;BMP_pressure;BME280_temperature;BME280_humidity;BME280_pressure;Samples;Min_cycle;Max_cycle;Signal;HPM_P1;HPM_P2
2023/01/05 00:01:01;;;;;;;1.10;0.93;;;14.50;69.80;;;;;;5052031;28;20443;-90
2023/01/05 00:03:30;;;;;;;1.03;0.93;;;14.20;70.80;;;;;;5050199;28;20462;-91
2023/01/05 00:05:59;;;;;;;1.63;0.93;;;14.40;70.40;;;;;;5054691;28;20447;-92
2023/01/05 00:08:26;;;;;;;1.10;1.00;;;14.40;70.50;;;;;;5043299;27;21005;-92
2023/01/05 00:24:47;;;;;;;1.10;0.87;;;14.30;70.60;;;;;;5010252;28;20436;-90
2023/01/05 00:27:14;;;;;;;1.73;1.10;;;14.20;71.80;;;;;;5060429;28;20531;-90
2023/01/05 00:29:41;;;;;;;1.10;0.90;;;14.20;71.70;;;;;;5062723;27;21842;-90
2023/01/05 00:32:08;;;;;;;1.50;1.00;;;14.20;71.50;;;;;;5083997;28;20462;-90
2023/01/05 00:34:36;;;;;;;1.83;0.80;;;14.20;71.80;;;;;;5066499;28;20451;-90
2023/01/05 00:37:03;;;;;;;1.67;0.70;;;14.10;71.50;;;;;;5088763;28;20457;-89
2023/01/05 00:39:32;;;;;;;1.37;0.97;;;14.10;71.30;;;;;;5062213;28;20458;-90
2023/01/05 00:41:59;;;;;;;1.00;0.90;;;14.20;71.00;;;;;;5055346;28;20872;-92
2023/01/05 00:44:26;;;;;;;1.83;1.00;;;14.20;71.00;;;;;;5070178;27;20439;-91
2023/01/05 00:46:54;;;;;;;1.10;1.00;;;14.20;71.00;;;;;;5068947;28;20475;-91
2023/01/05 00:49:21;;;;;;;12.13;7.40;;;14.20;71.00;;;;;;5103424;28;20485;-90
2023/01/05 00:51:49;;;;;;;13.10;6.10;;;14.40;71.50;;;;;;5047264;28;20973;-89
2023/01/05 00:54:16;;;;;;;5.43;3.30;;;14.50;70.80;;;;;;5081621;28;20453;-90
2023/01/05 00:56:43;;;;;;;3.43;2.30;;;14.50;70.70;;;;;;5044557;27;22286;-90
2023/01/05 00:59:10;;;;;;;1.50;1.27;;;14.50;71.00;;;;;;5051343;28;20467;-90
2023/01/05 01:01:37;;;;;;;1.70;1.20;;;14.30;71.10;;;;;;5052361;28;20447;-90
2023/01/05 01:04:04;;;;;;;1.80;1.07;;;14.10;71.60;;;;;;5063354;28;20462;-91
2023/01/05 01:06:31;;;;;;;1.27;1.10;;;14.20;72.50;;;;;;5069982;27;20441;-90
2023/01/05 01:08:59;;;;;;;1.53;1.20;;;14.30;72.70;;;;;;5064400;28;20459;-90
2023/01/05 01:11:26;;;;;;;4.07;1.07;;;14.20;72.50;;;;;;5082336;28;20465;-92
2023/01/05 01:13:53;;;;;;;1.57;1.00;;;14.40;72.30;;;;;;5049939;28;20468;-92
2023/01/05 01:16:20;;;;;;;1.70;1.33;;;14.40;72.00;;;;;;5057461;28;20463;-89
2023/01/05 01:18:47;;;;;;;1.30;0.97;;;14.30;72.00;;;;;;5044474;27;20462;-90
2023/01/05 01:21:14;;;;;;;1.00;0.80;;;14.30;72.10;;;;;;5068211;28;20542;-91
2023/01/05 01:23:43;;;;;;;1.40;0.93;;;14.20;71.70;;;;;;5066686;27;20439;-90
2023/01/05 01:26:13;;;;;;;1.03;0.93;;;14.40;71.60;;;;;;5067415;28;20988;-91
2023/01/05 01:28:42;;;;;;;0.80;0.70;;;14.20;71.40;;;;;;5053822;27;20474;-92
2023/01/05 01:31:09;;;;;;;1.87;0.90;;;14.40;71.00;;;;;;5070192;28;20976;-89
2023/01/05 01:33:39;;;;;;;1.03;0.93;;;14.50;70.60;;;;;;5062069;28;20974;-90
2023/01/05 01:36:08;;;;;;;1.47;1.00;;;14.60;70.30;;;;;;5055197;28;20446;-89
2023/01/05 01:38:36;;;;;;;1.10;1.00;;;14.60;70.40;;;;;;5053933;28;20466;-90
2023/01/05 01:41:03;;;;;;;1.00;0.90;;;14.60;71.00;;;;;;5053826;28;21050;-92
2023/01/05 01:43:45;;;;;;;1.60;1.30;;;14.80;70.50;;;;;;5049193;27;20811;-92
2023/01/05 01:46:14;;;;;;;1.20;1.00;;;14.70;70.30;;;;;;5054447;28;20449;-90
2023/01/05 01:48:45;;;;;;;1.07;0.97;;;14.70;70.50;;;;;;5097344;27;20466;-89
2023/01/05 01:51:17;;;;;;;1.20;1.00;;;14.60;70.20;;;;;;5070059;28;20924;-91
2023/01/05 01:53:47;;;;;;;1.80;1.47;;;14.50;70.10;;;;;;5060269;28;20467;-90
2023/01/05 01:56:18;;;;;;;2.10;0.83;;;14.60;70.20;;;;;;5073997;28;20439;-89
2023/01/05 01:58:46;;;;;;;1.17;0.87;;;14.70;69.50;;;;;;5064781;28;20866;-90
2023/01/05 02:01:14;;;;;;;0.90;0.80;;;14.60;69.60;;;;;;5052521;28;20629;-92
2023/01/05 02:03:42;;;;;;;1.33;0.90;;;14.70;69.70;;;;;;5049247;27;20461;-90
2023/01/05 02:06:10;;;;;;;1.00;0.90;;;14.70;70.00;;;;;;5070256;28;20635;-90
2023/01/05 02:08:37;;;;;;;0.80;0.70;;;14.70;71.20;;;;;;5067271;28;20800;-93
2023/01/05 02:11:34;;;;;;;1.10;1.00;;;14.70;70.50;;;;;;5049785;28;20455;-92
2023/01/05 02:14:22;;;;;;;1.00;0.90;;;14.70;70.50;;;;;;5070112;28;20444;-90
2023/01/05 02:17:04;;;;;;;0.90;0.70;;;15.00;69.50;;;;;;5078893;28;20825;-87
2023/01/05 02:20:24;;;;;;;0.90;0.80;;;15.10;68.70;;;;;;5067156;28;20436;-91
2023/01/05 02:23:21;;;;;;;0.90;0.70;;;15.10;67.80;;;;;;5082419;28;20561;-90
2023/01/05 02:26:12;;;;;;;1.53;0.70;;;15.20;67.80;;;;;;5063165;28;20442;-90
2023/01/05 02:29:04;;;;;;;0.80;0.60;;;15.10;67.90;;;;;;5067012;28;20538;-90
2023/01/05 02:31:37;;;;;;;0.80;0.70;;;15.10;68.70;;;;;;5047613;28;20447;-91
2023/01/05 02:34:12;;;;;;;0.77;0.60;;;15.10;68.70;;;;;;5070535;28;20834;-93
2023/01/05 02:36:49;;;;;;;2.07;0.80;;;15.20;68.30;;;;;;5063701;28;20453;-91
2023/01/05 02:39:19;;;;;;;2.03;1.00;;;15.20;68.50;;;;;;5050187;28;20442;-91
2023/01/05 02:41:53;;;;;;;1.67;0.63;;;15.10;69.50;;;;;;5049098;28;20482;-93
2023/01/05 02:44:21;;;;;;;0.90;0.67;;;15.20;69.30;;;;;;5067916;28;20434;-91
2023/01/05 02:47:01;;;;;;;0.80;0.77;;;15.30;68.70;;;;;;5067892;28;20446;-90
2023/01/05 02:49:29;;;;;;;0.70;0.70;;;15.30;68.10;;;;;;5051185;28;21002;-92
2023/01/05 02:51:59;;;;;;;0.90;0.80;;;15.40;68.30;;;;;;5099141;28;21161;-90
2023/01/05 02:54:32;;;;;;;0.80;0.80;;;15.20;68.90;;;;;;5049746;28;20446;-89
2023/01/05 02:57:04;;;;;;;0.83;0.80;;;14.90;69.80;;;;;;5051186;28;20971;-90
2023/01/05 02:59:36;;;;;;;1.10;1.00;;;14.70;71.00;;;;;;5067552;28;20451;-92
2023/01/05 03:02:09;;;;;;;1.20;1.10;;;14.50;72.00;;;;;;5071245;28;20657;-91
2023/01/05 03:04:40;;;;;;;1.20;0.90;;;14.70;72.20;;;;;;5082903;28;20836;-90
2023/01/05 03:07:11;;;;;;;1.00;0.90;;;14.70;72.10;;;;;;5075194;28;21241;-89
2023/01/05 03:09:40;;;;;;;0.90;0.83;;;14.70;72.40;;;;;;5069650;28;20473;-91
2023/01/05 03:15:06;;;;;;;1.20;1.10;;;14.50;72.50;;;;;;5084090;28;20450;-92
2023/01/05 03:17:42;;;;;;;1.80;1.00;;;14.40;72.00;;;;;;5078548;28;20513;-90
2023/01/05 03:20:11;;;;;;;1.77;1.67;;;14.40;72.40;;;;;;5050785;28;20473;-90
2023/01/05 03:36:58;;;;;;;2.30;1.03;;;14.50;70.40;;;;;;5051579;28;20447;-90
2023/01/05 03:39:27;;;;;;;2.33;1.03;;;14.50;70.90;;;;;;5055372;28;20427;-90
2023/01/05 03:41:56;;;;;;;1.80;0.93;;;14.50;70.30;;;;;;5071778;28;20470;-91
2023/01/05 03:44:23;;;;;;;2.20;1.00;;;14.60;70.00;;;;;;5055394;28;20447;-90
2023/01/05 03:46:51;;;;;;;1.93;0.80;;;14.70;69.50;;;;;;5070118;28;20472;-90
2023/01/05 03:49:20;;;;;;;2.03;0.90;;;14.70;69.50;;;;;;5067364;28;21001;-90
2023/01/05 03:51:48;;;;;;;2.20;0.90;;;14.80;69.20;;;;;;5075240;28;20473;-90
2023/01/05 03:54:16;;;;;;;2.20;0.93;;;14.70;69.00;;;;;;5079546;28;20447;-90
2023/01/05 03:56:44;;;;;;;2.10;1.00;;;14.50;68.70;;;;;;5051932;27;20882;-90
2023/01/05 03:59:12;;;;;;;1.43;1.20;;;14.60;68.70;;;;;;5076521;28;20549;-92
2023/01/05 04:01:39;;;;;;;1.40;0.97;;;14.50;68.80;;;;;;5070997;27;20458;-89
2023/01/05 04:04:09;;;;;;;1.13;1.03;;;14.70;68.70;;;;;;5065975;28;20450;-91
2023/01/05 04:06:37;;;;;;;4.57;1.33;;;14.80;68.20;;;;;;5057675;28;20530;-90
2023/01/05 04:09:05;;;;;;;2.30;1.00;;;14.70;68.10;;;;;;5057785;28;20494;-90
2023/01/05 04:11:33;;;;;;;1.93;0.90;;;14.80;67.70;;;;;;5058393;27;20520;-91
2023/01/05 04:14:04;;;;;;;2.80;1.30;;;14.90;67.70;;;;;;5058109;28;20858;-90
2023/01/05 04:16:33;;;;;;;2.03;1.00;;;14.70;67.10;;;;;;5057419;28;20469;-90
2023/01/05 04:19:07;;;;;;;3.43;1.00;;;14.80;67.60;;;;;;5072659;28;20474;-89
2023/01/05 04:21:34;;;;;;;3.93;1.10;;;14.80;66.70;;;;;;5075058;28;20450;-90
2023/01/05 04:24:05;;;;;;;1.87;1.30;;;14.50;67.20;;;;;;5073724;28;20435;-90
2023/01/05 04:26:35;;;;;;;1.13;0.90;;;14.60;67.30;;;;;;5091191;28;20539;-89
2023/01/05 04:29:02;;;;;;;5.30;1.53;;;14.50;67.30;;;;;;5092038;28;20466;-91
2023/01/05 04:31:29;;;;;;;5.43;1.10;;;14.50;66.40;;;;;;5073598;28;20551;-91
2023/01/05 04:33:57;;;;;;;5.73;1.40;;;14.30;66.10;;;;;;5058476;28;20442;-90
2023/01/05 04:36:25;;;;;;;4.83;1.00;;;14.40;66.70;;;;;;5076411;28;20443;-90
2023/01/05 04:38:55;;;;;;;2.90;1.33;;;14.60;66.00;;;;;;5056894;27;20489;-89
2023/01/05 04:41:24;;;;;;;3.97;1.60;;;14.60;65.40;;;;;;5089075;28;20449;-90
2023/01/05 04:43:53;;;;;;;6.33;1.60;;;14.70;65.20;;;;;;5048231;27;20438;-89
2023/01/05 04:46:21;;;;;;;5.00;1.93;;;14.70;64.90;;;;;;5058621;28;20451;-89
2023/01/05 04:48:50;;;;;;;7.30;1.30;;;14.30;64.20;;;;;;5067506;28;20477;-91
2023/01/05 04:51:19;;;;;;;3.90;1.20;;;14.30;65.70;;;;;;5054678;28;20827;-90
2023/01/05 04:53:47;;;;;;;6.37;1.30;;;14.30;64.50;;;;;;5071717;27;20868;-90
2023/01/05 04:56:17;;;;;;;5.23;1.37;;;14.40;64.30;;;;;;5076904;28;20450;-90
2023/01/05 04:58:47;;;;;;;5.00;1.10;;;14.60;63.90;;;;;;5051848;28;20492;-91
2023/01/05 05:01:14;;;;;;;7.53;2.03;;;14.90;63.30;;;;;;5055599;28;20443;-91
2023/01/05 05:03:42;;;;;;;5.40;1.50;;;14.90;61.70;;;;;;5088675;28;20493;-91
2023/01/05 05:06:15;;;;;;;4.30;1.60;;;15.00;62.00;;;;;;5062401;28;20967;-92
2023/01/05 05:08:42;;;;;;;6.50;1.40;;;15.00;61.20;;;;;;5067960;28;20466;-90
2023/01/05 05:11:10;;;;;;;6.43;1.60;;;14.80;60.10;;;;;;5075155;28;20716;-90
2023/01/05 05:13:39;;;;;;;3.73;1.43;;;14.60;60.90;;;;;;5075052;28;20526;-91
2023/01/05 05:16:09;;;;;;;6.80;1.73;;;14.40;60.10;;;;;;5062195;28;20438;-92
2023/01/05 05:18:36;;;;;;;8.00;1.73;;;14.40;60.40;;;;;;5055577;28;20484;-90
2023/01/05 05:21:04;;;;;;;6.03;1.80;;;14.40;59.50;;;;;;5072110;28;20450;-90
2023/01/05 05:23:35;;;;;;;7.17;1.80;;;14.40;58.40;;;;;;5073793;28;20459;-92
2023/01/05 05:26:02;;;;;;;6.90;1.43;;;14.50;58.90;;;;;;5079795;28;20440;-90
2023/01/05 05:28:29;;;;;;;18.80;8.63;;;14.60;57.70;;;;;;5050515;28;20987;-90
2023/01/05 05:30:57;;;;;;;77.00;35.23;;;14.40;57.10;;;;;;5055299;27;20464;-91
2023/01/05 05:33:26;;;;;;;17.23;8.53;;;14.50;56.80;;;;;;5071453;28;20956;-89
2023/01/05 05:35:52;;;;;;;7.97;2.13;;;14.30;56.30;;;;;;5070628;27;20472;-90
2023/01/05 05:38:19;;;;;;;8.53;4.83;;;14.20;57.50;;;;;;5090492;28;21006;-91
2023/01/05 05:40:48;;;;;;;8.53;2.50;;;14.10;56.40;;;;;;5058514;28;20827;-90
2023/01/05 05:43:15;;;;;;;6.37;2.70;;;14.10;56.70;;;;;;5043236;28;20508;-92
2023/01/05 05:45:42;;;;;;;6.17;2.77;;;14.10;56.10;;;;;;5063066;28;20465;-89
2023/01/05 05:48:09;;;;;;;5.73;1.73;;;14.20;55.80;;;;;;5053770;28;20464;-92
2023/01/05 05:50:37;;;;;;;6.27;1.80;;;14.10;54.80;;;;;;5049290;28;20470;-92
2023/01/05 05:53:06;;;;;;;12.10;1.70;;;14.30;55.80;;;;;;5059380;28;20544;-90
2023/01/05 05:55:33;;;;;;;5.93;1.70;;;14.30;55.40;;;;;;5041185;28;20828;-89
2023/01/05 05:58:00;;;;;;;5.00;2.30;;;14.30;54.20;;;;;;5073792;28;21222;-90
2023/01/05 06:00:27;;;;;;;8.43;1.87;;;14.40;54.70;;;;;;5071989;28;20487;-90
2023/01/05 06:02:54;;;;;;;11.03;3.60;;;14.50;54.40;;;;;;5082863;27;20795;-89
2023/01/05 06:05:21;;;;;;;11.20;2.90;;;14.50;55.00;;;;;;5080118;28;20531;-91
2023/01/05 06:07:50;;;;;;;10.50;2.53;;;14.60;54.80;;;;;;5065235;27;20471;-89
2023/01/05 06:10:17;;;;;;;4.60;1.30;;;14.60;54.40;;;;;;5052813;28;20910;-92
2023/01/05 06:12:44;;;;;;;3.50;2.17;;;14.50;54.30;;;;;;5046615;28;20459;-90
2023/01/05 06:15:11;;;;;;;13.60;4.50;;;14.40;54.00;;;;;;5065507;28;20794;-90
2023/01/05 06:17:38;;;;;;;10.70;3.97;;;14.30;55.00;;;;;;5064567;28;20474;-90
2023/01/05 06:20:07;;;;;;;17.80;3.70;;;14.30;56.00;;;;;;5048580;28;20853;-91
2023/01/05 06:22:34;;;;;;;12.10;3.93;;;14.20;55.20;;;;;;5075099;28;20451;-90
2023/01/05 06:25:02;;;;;;;3.37;1.47;;;14.40;55.00;;;;;;5068282;27;20464;-91
2023/01/05 06:27:29;;;;;;;12.43;3.10;;;14.30;54.30;;;;;;5057558;28;21003;-91
2023/01/05 06:29:56;;;;;;;7.63;2.50;;;14.20;54.60;;;;;;5056487;28;20460;-89
2023/01/05 06:32:23;;;;;;;17.97;4.93;;;14.40;54.50;;;;;;5051673;28;20454;-90
2023/01/05 06:34:50;;;;;;;7.73;4.03;;;14.50;54.40;;;;;;5064693;28;20967;-91
2023/01/05 06:37:17;;;;;;;10.70;2.73;;;14.40;54.00;;;;;;5039189;28;20881;-90
2023/01/05 06:39:44;;;;;;;4.90;1.70;;;14.20;54.30;;;;;;5064496;28;20442;-89
2023/01/05 06:42:12;;;;;;;7.10;3.00;;;14.20;54.30;;;;;;5049773;28;20446;-89
2023/01/05 06:44:39;;;;;;;3.60;2.60;;;14.40;54.60;;;;;;5047788;28;20455;-91
2023/01/05 06:47:06;;;;;;;9.63;2.00;;;14.30;54.50;;;;;;5060715;28;20453;-92
2023/01/05 06:49:33;;;;;;;8.57;3.03;;;14.20;54.50;;;;;;5064126;28;20447;-90
2023/01/05 06:51:59;;;;;;;11.00;2.97;;;14.30;54.90;;;;;;5082966;28;20453;-90
2023/01/05 06:54:26;;;;;;;10.50;4.07;;;14.30;55.20;;;;;;5098094;28;20477;-91
2023/01/05 06:56:53;;;;;;;6.30;3.87;;;14.20;55.30;;;;;;5046473;28;20457;-91
2023/01/05 06:59:21;;;;;;;30.77;9.00;;;14.40;55.70;;;;;;5057218;28;20450;-89
2023/01/05 07:01:48;;;;;;;15.77;4.53;;;14.60;55.50;;;;;;5042122;28;20453;-91
2023/01/05 07:04:15;;;;;;;11.20;4.37;;;14.40;54.90;;;;;;5068673;28;20459;-90
2023/01/05 07:06:42;;;;;;;14.50;5.13;;;14.30;55.20;;;;;;5048848;28;20451;-91
2023/01/05 07:09:09;;;;;;;17.93;6.90;;;14.20;55.50;;;;;;5067819;28;20921;-90
2023/01/05 07:11:36;;;;;;;17.50;5.83;;;14.40;55.80;;;;;;5059439;28;20459;-92
2023/01/05 07:14:03;;;;;;;20.90;6.90;;;14.30;55.50;;;;;;5078136;28;20805;-91
2023/01/05 07:16:31;;;;;;;18.60;6.77;;;14.20;56.00;;;;;;5060775;28;20642;-90
2023/01/05 07:18:58;;;;;;;18.70;5.90;;;14.30;56.30;;;;;;5048368;28;20780;-91
2023/01/05 07:21:25;;;;;;;15.50;4.70;;;14.30;55.50;;;;;;5064672;28;20443;-91
2023/01/05 07:23:52;;;;;;;18.90;7.53;;;14.30;55.30;;;;;;5048685;28;20532;-92
2023/01/05 07:26:19;;;;;;;12.77;2.93;;;14.40;55.20;;;;;;5051119;28;20824;-92
2023/01/05 07:28:46;;;;;;;7.80;2.27;;;14.40;55.10;;;;;;5067381;27;20474;-90
2023/01/05 07:31:13;;;;;;;7.40;2.73;;;14.30;55.30;;;;;;5082286;28;20503;-90
2023/01/05 07:33:41;;;;;;;13.73;3.13;;;14.30;55.30;;;;;;5068298;28;20997;-90
2023/01/05 07:36:08;;;;;;;8.00;2.90;;;14.30;55.60;;;;;;5050279;28;20583;-90
2023/01/05 07:38:35;;;;;;;9.80;3.80;;;14.30;55.30;;;;;;5060850;28;20483;-92
2023/01/05 07:41:03;;;;;;;5.73;2.57;;;14.30;55.60;;;;;;5070787;27;20848;-92
2023/01/05 07:43:30;;;;;;;8.30;2.00;;;14.40;55.20;;;;;;5049510;28;20443;-91
2023/01/05 07:45:58;;;;;;;11.80;6.60;;;14.50;55.00;;;;;;5065893;27;20449;-91
2023/01/05 07:48:25;;;;;;;6.03;2.73;;;14.40;55.00;;;;;;5061426;28;20478;-91
2023/01/05 07:51:00;;;;;;;6.60;2.33;;;14.40;55.50;;;;;;5082843;28;20463;-90
2023/01/05 07:53:27;;;;;;;4.83;2.00;;;14.10;55.40;;;;;;5069267;28;21022;-90
2023/01/05 07:55:57;;;;;;;5.90;1.57;;;14.00;55.50;;;;;;5048353;27;20458;-90
2023/01/05 07:58:25;;;;;;;8.50;2.53;;;13.80;56.20;;;;;;5084857;28;20460;-90
2023/01/05 08:00:51;;;;;;;3.70;2.07;;;13.70;56.20;;;;;;5068483;27;20603;-91
2023/01/05 08:03:18;;;;;;;3.33;1.30;;;13.90;56.40;;;;;;5081857;28;20442;-90
2023/01/05 08:05:46;;;;;;;8.13;2.70;;;14.00;56.40;;;;;;5067811;28;20450;-91
2023/01/05 08:08:15;;;;;;;9.63;1.80;;;14.10;55.60;;;;;;5073879;28;20478;-90
2023/01/05 08:10:43;;;;;;;7.30;2.13;;;14.20;55.50;;;;;;5053151;28;21036;-90
2023/01/05 08:15:59;;;;;;;8.37;3.83;;;14.10;55.40;;;;;;5072545;28;20430;-90
2023/01/05 08:18:27;;;;;;;12.17;3.17;;;14.20;55.60;;;;;;5067922;28;20478;-89
2023/01/05 08:20:55;;;;;;;2.03;1.50;;;14.10;55.60;;;;;;5057944;28;20531;-90
2023/01/05 08:23:24;;;;;;;3.87;1.67;;;14.30;55.80;;;;;;5069697;28;20562;-90
2023/01/05 08:25:51;;;;;;;8.20;2.57;;;14.40;55.70;;;;;;5050604;28;20440;-91
2023/01/05 08:28:18;;;;;;;8.33;2.60;;;14.40;56.00;;;;;;5091021;28;20470;-90
2023/01/05 08:30:46;;;;;;;5.27;1.73;;;14.40;54.80;;;;;;5089034;28;20447;-90
2023/01/05 08:33:13;;;;;;;4.27;1.73;;;14.00;55.60;;;;;;5107576;28;20533;-90
2023/01/05 08:35:40;;;;;;;9.03;2.20;;;14.20;56.00;;;;;;5055496;28;20825;-90
2023/01/05 08:38:07;;;;;;;6.40;2.20;;;14.40;55.50;;;;;;5071403;28;20884;-91
2023/01/05 08:40:37;;;;;;;3.30;1.87;;;14.40;55.50;;;;;;5056025;28;20478;-91
2023/01/05 08:43:04;;;;;;;11.03;3.33;;;14.40;55.70;;;;;;5049201;27;22019;-90
2023/01/05 08:45:31;;;;;;;8.67;2.70;;;14.30;56.20;;;;;;5070892;28;20477;-91
2023/01/05 08:47:58;;;;;;;19.50;6.13;;;14.10;56.30;;;;;;5080148;28;20467;-88
2023/01/05 08:50:25;;;;;;;10.70;3.27;;;14.10;56.80;;;;;;5071007;28;21148;-90
2023/01/05 08:52:52;;;;;;;11.40;3.00;;;14.10;56.90;;;;;;5068565;28;20463;-90
2023/01/05 08:55:19;;;;;;;8.80;3.97;;;14.10;56.90;;;;;;5048807;28;20803;-89
2023/01/05 08:57:47;;;;;;;10.00;3.67;;;14.00;57.30;;;;;;5071770;28;20475;-90
2023/01/05 09:00:16;;;;;;;10.33;4.13;;;13.90;57.40;;;;;;5058912;28;20487;-90
2023/01/05 09:02:43;;;;;;;4.77;1.70;;;14.00;57.40;;;;;;5070464;28;20937;-90
2023/01/05 09:05:10;;;;;;;3.43;2.00;;;13.90;57.00;;;;;;5086354;28;20496;-94
2023/01/05 09:07:37;;;;;;;20.70;7.10;;;14.00;57.20;;;;;;5050586;28;20465;-89
2023/01/05 09:10:06;;;;;;;7.40;2.67;;;13.90;57.30;;;;;;5066525;28;21072;-89
2023/01/05 09:12:35;;;;;;;10.23;5.23;;;13.90;58.20;;;;;;5049680;28;20466;-90
2023/01/05 09:15:05;;;;;;;6.00;3.13;;;13.80;57.70;;;;;;5087711;27;20443;-92
2023/01/05 09:17:34;;;;;;;8.60;2.23;;;13.90;58.10;;;;;;5071185;28;20467;-90
2023/01/05 09:20:03;;;;;;;5.20;2.00;;;14.00;57.80;;;;;;5070709;28;20538;-90
2023/01/05 09:22:31;;;;;;;4.60;1.30;;;14.10;57.30;;;;;;5086225;28;20940;-88
2023/01/05 09:24:58;;;;;;;3.90;1.27;;;14.30;56.90;;;;;;5083076;28;20493;-89
2023/01/05 09:27:25;;;;;;;2.77;1.40;;;14.30;56.90;;;;;;5065998;28;21137;-89
2023/01/05 09:29:52;;;;;;;5.17;1.30;;;14.20;57.00;;;;;;5082889;27;20463;-89
2023/01/05 09:32:22;;;;;;;9.43;1.70;;;14.20;57.30;;;;;;5066241;28;20482;-91
2023/01/05 09:34:49;;;;;;;4.23;1.70;;;14.10;57.50;;;;;;5070641;28;20459;-90
2023/01/05 09:37:16;;;;;;;6.37;2.10;;;14.30;57.60;;;;;;5072068;28;20516;-90
2023/01/05 09:39:43;;;;;;;3.73;1.47;;;14.10;57.60;;;;;;5071687;28;20455;-89
2023/01/05 09:42:16;;;;;;;3.67;1.47;;;14.30;57.60;;;;;;5045913;28;20460;-88
2023/01/05 09:44:46;;;;;;;13.83;4.77;;;14.30;57.20;;;;;;5069235;28;20442;-89
2023/01/05 09:47:18;;;;;;;11.83;5.40;;;14.40;57.40;;;;;;5070616;28;20502;-89
2023/01/05 09:49:48;;;;;;;12.40;6.50;;;14.40;57.40;;;;;;5074304;28;20550;-89
2023/01/05 09:52:18;;;;;;;9.53;5.87;;;14.40;57.00;;;;;;5073347;28;20467;-91
2023/01/05 09:54:45;;;;;;;3.90;1.70;;;14.60;57.20;;;;;;5090345;28;20447;-89
2023/01/05 09:57:17;;;;;;;7.33;2.80;;;14.40;56.50;;;;;;5053385;28;20552;-89
2023/01/05 09:59:46;;;;;;;11.40;2.87;;;14.30;57.10;;;;;;5086948;28;20444;-90
2023/01/05 10:02:24;;;;;;;5.30;2.10;;;14.40;57.10;;;;;;5072293;28;20453;-90
2023/01/05 10:04:54;;;;;;;5.70;1.77;;;14.50;57.20;;;;;;5069230;28;20511;-89
2023/01/05 10:07:31;;;;;;;7.83;2.23;;;14.70;56.90;;;;;;5073493;28;20465;-90
2023/01/05 10:10:01;;;;;;;7.80;1.90;;;14.80;57.20;;;;;;5052707;28;20984;-90
2023/01/05 10:15:19;;;;;;;8.63;2.77;;;14.50;56.90;;;;;;5067238;28;20805;-90
2023/01/05 10:17:47;;;;;;;4.80;2.40;;;14.50;57.50;;;;;;5056860;28;21223;-90
2023/01/05 10:20:17;;;;;;;4.27;1.40;;;14.60;57.30;;;;;;5063551;28;20527;-89
2023/01/05 10:22:54;;;;;;;7.07;1.70;;;14.60;57.40;;;;;;5051116;28;20468;-87
2023/01/05 10:25:25;;;;;;;9.03;1.90;;;14.40;57.20;;;;;;5067687;28;20497;-88
2023/01/05 10:28:00;;;;;;;11.57;1.93;;;14.50;57.40;;;;;;5051337;28;21172;-89
2023/01/05 10:30:39;;;;;;;7.60;2.07;;;14.70;56.90;;;;;;5075507;28;20538;-89
2023/01/05 10:33:16;;;;;;;5.20;2.20;;;14.80;57.30;;;;;;5067207;28;20859;-89
2023/01/05 10:36:00;;;;;;;6.23;1.97;;;14.90;57.60;;;;;;5048410;28;20962;-88
2023/01/05 10:38:41;;;;;;;6.13;2.30;;;14.70;56.90;;;;;;5074038;28;20473;-89
2023/01/05 10:41:18;;;;;;;4.27;1.47;;;14.50;57.70;;;;;;5080878;28;22729;-91
2023/01/05 10:44:23;;;;;;;9.60;3.60;;;14.50;57.70;;;;;;5086070;28;20825;-87
2023/01/05 10:46:50;;;;;;;9.77;3.07;;;14.40;58.20;;;;;;5022303;28;20495;-89
2023/01/05 10:49:21;;;;;;;13.07;2.33;;;14.50;57.90;;;;;;5054862;28;20491;-88
2023/01/05 10:51:50;;;;;;;2.77;1.37;;;14.70;57.50;;;;;;5055246;28;20456;-87
2023/01/05 10:54:29;;;;;;;6.97;1.90;;;14.70;57.40;;;;;;5087987;28;20454;-88
2023/01/05 10:57:09;;;;;;;4.80;1.40;;;14.50;58.40;;;;;;5084809;28;20803;-90
2023/01/05 10:59:54;;;;;;;6.77;1.97;;;14.70;58.30;;;;;;5058903;28;20806;-88
2023/01/05 11:02:22;;;;;;;2.50;1.27;;;14.50;58.30;;;;;;5087100;28;20522;-87
2023/01/05 11:04:50;;;;;;;4.30;1.90;;;14.70;58.10;;;;;;5077325;28;20478;-89
2023/01/05 11:07:19;;;;;;;8.63;3.10;;;14.90;57.80;;;;;;5074091;28;21001;-89
2023/01/05 11:09:48;;;;;;;4.10;2.77;;;15.10;57.50;;;;;;5076359;28;20434;-86
2023/01/05 11:12:18;;;;;;;4.67;2.33;;;15.00;57.40;;;;;;5058955;27;20471;-90
2023/01/05 11:14:49;;;;;;;12.33;4.23;;;14.80;57.50;;;;;;5097071;28;20446;-90
2023/01/05 11:17:20;;;;;;;4.40;1.87;;;14.90;57.80;;;;;;5077272;27;20470;-89
2023/01/05 11:19:49;;;;;;;11.43;3.90;;;15.00;57.00;;;;;;5074038;28;21050;-92
2023/01/05 11:22:30;;;;;;;13.03;2.73;;;14.90;56.80;;;;;;5088409;28;20471;-89
2023/01/05 11:25:18;;;;;;;6.97;2.47;;;14.90;56.90;;;;;;5059724;28;20979;-89
2023/01/05 11:27:45;;;;;;;10.30;1.93;;;14.80;56.50;;;;;;5072524;28;20471;-89
2023/01/05 11:30:23;;;;;;;7.87;3.30;;;14.70;56.60;;;;;;5113653;27;21955;-90
2023/01/05 11:32:50;;;;;;;10.37;2.20;;;14.70;56.80;;;;;;5088660;28;20462;-90
2023/01/05 11:35:19;;;;;;;4.93;1.80;;;14.70;56.90;;;;;;5061191;27;20460;-89
2023/01/05 11:37:48;;;;;;;5.43;2.20;;;14.70;57.00;;;;;;5076379;28;20552;-90
2023/01/05 11:40:17;;;;;;;11.10;2.57;;;14.80;56.50;;;;;;5079646;27;20442;-89
2023/01/05 11:42:45;;;;;;;14.97;3.67;;;14.80;56.50;;;;;;5114055;27;20431;-91
2023/01/05 11:45:20;;;;;;;12.20;3.37;;;14.80;56.40;;;;;;5067080;28;20465;-88
2023/01/05 11:47:49;;;;;;;14.13;4.20;;;14.80;56.40;;;;;;5060253;28;20818;-89
2023/01/05 11:50:23;;;;;;;12.37;5.20;;;14.80;56.00;;;;;;5053543;28;20455;-89
2023/01/05 11:52:53;;;;;;;13.57;5.90;;;14.60;56.10;;;;;;5056324;28;20466;-88
2023/01/05 11:55:31;;;;;;;8.67;2.93;;;14.90;57.00;;;;;;5069966;28;20450;-90
2023/01/05 11:58:22;;;;;;;13.53;5.93;;;14.80;55.90;;;;;;5057525;27;20463;-90
2023/01/05 12:01:05;;;;;;;8.47;2.47;;;14.80;55.90;;;;;;5060110;28;20951;-89
2023/01/05 12:03:47;;;;;;;8.33;2.97;;;14.50;56.10;;;;;;5074147;28;20507;-88
2023/01/05 12:06:30;;;;;;;7.43;3.00;;;14.70;56.30;;;;;;5088689;28;20560;-89
2023/01/05 12:09:05;;;;;;;17.73;6.10;;;15.00;56.40;;;;;;5088606;28;20549;-89
2023/01/05 12:11:42;;;;;;;13.60;4.53;;;15.10;55.30;;;;;;5109653;27;20439;-90
2023/01/05 12:14:25;;;;;;;9.47;3.47;;;14.80;55.30;;;;;;5086340;27;20443;-89
2023/01/05 12:16:55;;;;;;;14.67;4.10;;;14.80;55.50;;;;;;5055265;28;20452;-89
2023/01/05 12:19:41;;;;;;;3.30;1.87;;;14.70;56.00;;;;;;5069741;28;20535;-89
2023/01/05 12:22:49;;;;;;;8.13;3.30;;;14.80;55.90;;;;;;5085025;28;20817;-90
2023/01/05 12:25:26;;;;;;;5.13;1.93;;;14.80;55.70;;;;;;5071550;27;20457;-88
2023/01/05 12:28:18;;;;;;;6.13;2.90;;;14.80;56.20;;;;;;5092221;28;20468;-90
2023/01/05 12:30:49;;;;;;;11.63;2.37;;;14.90;55.90;;;;;;5073534;28;20452;-90
2023/01/05 12:33:34;;;;;;;12.20;2.67;;;15.20;55.50;;;;;;5089924;28;20914;-90
2023/01/05 12:36:12;;;;;;;15.43;4.17;;;15.30;55.10;;;;;;5057564;27;20441;-90
2023/01/05 12:38:52;;;;;;;7.77;2.17;;;15.20;55.30;;;;;;5057292;28;21009;-89
2023/01/05 12:41:33;;;;;;;8.20;2.20;;;15.20;55.40;;;;;;5087494;28;20563;-90
2023/01/05 12:44:10;;;;;;;9.23;2.23;;;15.30;56.00;;;;;;5069130;28;20929;-92
2023/01/05 12:46:51;;;;;;;8.40;1.93;;;15.40;54.60;;;;;;5071288;28;20462;-90
2023/01/05 12:49:23;;;;;;;6.70;2.37;;;15.40;54.90;;;;;;5048670;28;20482;-93
2023/01/05 12:51:55;;;;;;;11.93;2.83;;;15.50;54.80;;;;;;5083111;28;20767;-91
2023/01/05 12:54:30;;;;;;;11.60;6.70;;;15.50;54.90;;;;;;5067024;28;20443;-92
2023/01/05 12:57:05;;;;;;;3.80;1.70;;;15.40;54.90;;;;;;5073985;28;20450;-93
2023/01/05 12:59:36;;;;;;;8.63;2.63;;;15.40;55.10;;;;;;5083087;28;20453;-90
2023/01/05 13:02:26;;;;;;;12.30;3.03;;;15.50;54.50;;;;;;5067175;27;20831;-90
2023/01/05 13:04:58;;;;;;;16.90;3.27;;;15.50;54.60;;;;;;5045581;28;20482;-91
2023/01/05 13:07:31;;;;;;;13.73;5.07;;;15.30;53.80;;;;;;5049008;28;20489;-91
2023/01/05 13:10:01;;;;;;;13.23;4.20;;;15.60;54.70;;;;;;5048326;28;20447;-89
2023/01/05 13:12:31;;;;;;;16.83;3.30;;;15.60;54.40;;;;;;5055152;28;20500;-91
2023/01/05 13:15:07;;;;;;;8.43;2.90;;;15.80;53.70;;;;;;5061777;28;20449;-92
2023/01/05 13:17:36;;;;;;;7.10;2.50;;;16.00;52.50;;;;;;5062935;28;20465;-90
2023/01/05 13:20:16;;;;;;;17.57;4.50;;;15.60;52.90;;;;;;5055114;28;20459;-91
2023/01/05 13:22:44;;;;;;;20.50;4.43;;;15.30;54.00;;;;;;5047957;28;21033;-91
2023/01/05 13:25:18;;;;;;;7.83;2.80;;;15.30;54.00;;;;;;5061256;28;20493;-90
2023/01/05 13:27:47;;;;;;;9.67;4.00;;;15.30;53.80;;;;;;5061981;28;21011;-90
2023/01/05 13:30:22;;;;;;;18.10;9.23;;;15.40;53.90;;;;;;5048665;27;20447;-90
2023/01/05 13:33:03;;;;;;;9.20;3.70;;;15.20;53.80;;;;;;5067218;28;20470;-90
2023/01/05 13:35:43;;;;;;;9.27;3.87;;;15.20;53.50;;;;;;5063280;28;20484;-90
2023/01/05 13:38:44;;;;;;;9.13;2.93;;;15.30;54.00;;;;;;5046817;28;20465;-91
2023/01/05 13:41:33;;;;;;;9.43;2.60;;;15.50;53.90;;;;;;5082087;28;20446;-90